Time;durP1;ratioP1;P1;durP2;ratioP2;P2;SDS_P1;SDS_P2;PMS_P1;PMS_P2;Temp;Humidity;BMP_temperature;BMP_pressure;BME280_temperature;BME280_humidity;BME280_pressure;Samples;Min_cycle;Max_cycle;Signal;HPM_P1;HPM_P2
2023/06/11 16:42:29;;;;;;;1999.90;999.90;;;32.10;41.70;;;;;;5130885;27;20793;-76
2023/06/11 16:44:55;;;;;;;1999.90;999.90;;;31.30;43.00;;;;;;5135016;27;20074;-75
2023/06/11 16:47:20;;;;;;;1999.90;999.90;;;30.90;43.40;;;;;;5131007;27;20469;-76
2023/06/11 16:49:46;;;;;;;1999.90;999.90;;;30.80;45.20;;;;;;5132029;27;20082;-76
2023/06/11 16:52:12;;;;;;;1999.90;999.90;;;30.70;44.60;;;;;;5141249;27;20039;-76
2023/06/11 16:54:37;;;;;;;1999.90;999.90;;;30.50;45.20;;;;;;5133031;22;20046;-77
2023/06/11 16:57:03;;;;;;;1999.90;999.90;;;30.30;45.40;;;;;;5067004;28;20084;-77
2023/06/11 16:59:29;;;;;;;1999.90;999.90;;;30.30;45.20;;;;;;5080349;28;20041;-76
2023/06/11 17:01:54;;;;;;;1999.90;999.90;;;31.00;45.00;;;;;;5059572;28;20069;-76
2023/06/11 17:04:20;;;;;;;1999.90;999.90;;;30.90;44.90;;;;;;5056048;28;20056;-77
2023/06/11 17:06:45;;;;;;;1999.90;999.90;;;30.40;44.40;;;;;;5051137;28;20041;-77
2023/06/11 17:09:11;;;;;;;1999.90;999.90;;;30.00;45.20;;;;;;5048770;28;20044;-78
2023/06/11 17:11:36;;;;;;;1999.90;999.90;;;29.90;47.00;;;;;;5050658;28;20034;-77
2023/06/11 17:14:02;;;;;;;1999.90;999.90;;;29.80;46.20;;;;;;5051154;28;20386;-78
2023/06/11 17:16:28;;;;;;;1999.90;999.90;;;29.80;47.20;;;;;;5049868;28;20038;-77
2023/06/11 17:18:53;;;;;;;1999.90;999.90;;;29.70;47.50;;;;;;5051550;28;20494;-78
2023/06/11 17:21:19;;;;;;;1999.90;999.90;;;29.80;47.70;;;;;;5050961;28;20514;-77
2023/06/11 17:23:44;;;;;;;1999.90;999.90;;;29.60;47.40;;;;;;5051216;28;20029;-79
2023/06/11 17:26:10;;;;;;;1999.90;999.90;;;29.50;47.80;;;;;;5049612;28;20099;-77
2023/06/11 17:28:35;;;;;;;1999.90;999.90;;;29.30;47.60;;;;;;5050985;28;20501;-76
2023/06/11 17:31:02;;;;;;;1999.90;999.90;;;29.10;48.50;;;;;;5049099;28;20030;-77
2023/06/11 17:33:27;;;;;;;1999.90;999.90;;;28.90;50.60;;;;;;5049524;28;20030;-78
2023/06/11 17:35:53;;;;;;;1999.90;999.90;;;28.80;49.80;;;;;;5050408;28;20030;-76
2023/06/11 17:38:19;;;;;;;1999.90;999.90;;;28.60;50.30;;;;;;5051254;28;20053;-83
2023/06/11 17:40:45;;;;;;;1999.90;999.90;;;28.50;50.10;;;;;;5052936;28;20762;-82
2023/06/11 17:43:10;;;;;;;1999.90;999.90;;;28.40;50.40;;;;;;5050874;28;20142;-78
2023/06/11 17:45:36;;;;;;;1999.90;999.90;;;28.40;50.40;;;;;;5050614;28;20114;-80
2023/06/11 17:48:02;;;;;;;1999.90;999.90;;;28.30;50.90;;;;;;5049135;28;20084;-76
2023/06/11 17:50:27;;;;;;;1999.90;999.90;;;28.20;51.00;;;;;;5050546;28;20103;-76
2023/06/11 17:52:55;;;;;;;1999.90;999.90;;;28.00;51.70;;;;;;5040862;28;20042;-75
2023/06/11 17:55:20;;;;;;;1999.90;999.90;;;28.00;52.40;;;;;;5035498;28;20042;-77
2023/06/11 17:57:46;;;;;;;1999.90;999.90;;;27.90;52.20;;;;;;5037336;28;20126;-80
2023/06/11 18:00:14;;;;;;;1999.90;999.90;;;27.80;52.20;;;;;;5038139;28;20042;-79
2023/06/11 18:02:40;;;;;;;1999.90;999.90;;;27.70;53.10;;;;;;5037108;28;20038;-79
2023/06/11 18:05:10;;;;;;;1999.90;999.90;;;27.50;52.60;;;;;;5037584;28;20530;-82
2023/06/11 18:07:45;;;;;;;1999.90;999.90;;;27.40;52.30;;;;;;5037403;28;20038;-82
2023/06/11 18:10:11;;;;;;;1999.90;999.90;;;27.30;52.60;;;;;;5037042;28;20084;-80
2023/06/11 18:12:37;;;;;;;1999.90;999.90;;;27.30;53.10;;;;;;5038687;28;20037;-81
2023/06/11 18:15:06;;;;;;;1999.90;999.90;;;27.00;53.00;;;;;;5038969;28;20084;-80
2023/06/11 18:17:41;;;;;;;1999.90;999.90;;;26.90;53.70;;;;;;5038405;28;20034;-81
2023/06/11 18:20:07;;;;;;;1999.90;999.90;;;26.80;53.60;;;;;;5037090;28;20030;-83
2023/06/11 18:22:33;;;;;;;1999.90;999.90;;;26.70;55.00;;;;;;5036685;28;20042;-81
2023/06/11 18:24:58;;;;;;;1999.90;999.90;;;26.60;55.00;;;;;;5036688;28;20029;-80
2023/06/11 18:27:24;;;;;;;1999.90;999.90;;;26.50;55.90;;;;;;5037246;28;20096;-80
2023/06/11 18:29:50;;;;;;;1999.90;999.90;;;26.40;55.50;;;;;;5037277;28;20037;-81
2023/06/11 18:32:15;;;;;;;1999.90;999.90;;;26.20;55.90;;;;;;5037191;28;20042;-82
2023/06/11 18:34:41;;;;;;;1999.90;999.90;;;26.10;56.00;;;;;;5038299;28;20041;-81
2023/06/11 18:37:07;;;;;;;1999.90;999.90;;;26.00;56.30;;;;;;5038676;28;20034;-81
2023/06/11 18:39:32;;;;;;;1999.90;999.90;;;25.80;56.10;;;;;;5036466;28;20068;-81
2023/06/11 18:41:58;;;;;;;1999.90;999.90;;;25.70;56.90;;;;;;5036509;28;20034;-81
2023/06/11 18:44:23;;;;;;;1999.90;999.90;;;25.60;57.40;;;;;;5037636;28;20033;-81
2023/06/11 18:46:49;;;;;;;1999.90;999.90;;;25.50;58.30;;;;;;5035884;28;20116;-81
2023/06/11 18:49:14;;;;;;;1999.90;999.90;;;25.30;58.00;;;;;;5037246;28;20026;-81
2023/06/11 18:51:40;;;;;;;1999.90;999.90;;;25.20;58.90;;;;;;5035551;28;20034;-78
2023/06/11 18:54:05;;;;;;;1999.90;999.90;;;25.00;59.20;;;;;;5036208;28;20040;-78
2023/06/11 18:56:31;;;;;;;1999.90;999.90;;;24.80;59.20;;;;;;5035000;28;20050;-78
2023/06/11 18:58:57;;;;;;;1999.90;999.90;;;24.60;60.00;;;;;;5033398;28;20064;-79
2023/06/11 19:01:23;;;;;;;1999.90;999.90;;;24.50;60.50;;;;;;5036668;28;20055;-79
2023/06/11 19:03:48;;;;;;;1999.90;999.90;;;24.20;60.90;;;;;;5034834;28;20041;-78
2023/06/11 19:06:16;;;;;;;1999.90;999.90;;;24.10;61.00;;;;;;5035459;28;20399;-78
2023/06/11 19:08:42;;;;;;;1999.90;999.90;;;24.10;61.70;;;;;;5035629;28;20482;-78
2023/06/11 19:11:07;;;;;;;1999.90;999.90;;;23.90;61.80;;;;;;5034544;28;20034;-78
2023/06/11 19:13:33;;;;;;;1999.90;999.90;;;23.80;62.90;;;;;;5042032;28;20056;-78
2023/06/11 19:15:58;;;;;;;1999.90;999.90;;;23.60;62.80;;;;;;5036027;28;20471;-78
2023/06/11 19:18:24;;;;;;;1999.90;999.90;;;23.40;64.60;;;;;;5035638;28;20075;-78
2023/06/11 19:20:50;;;;;;;1999.90;999.90;;;23.40;63.30;;;;;;5035363;28;20034;-78
2023/06/11 19:23:15;;;;;;;1999.90;999.90;;;23.40;64.60;;;;;;5035055;28;20030;-78
2023/06/11 19:25:41;;;;;;;1999.90;999.90;;;23.10;65.50;;;;;;5034450;28;20503;-80
2023/06/11 19:28:07;;;;;;;1999.90;999.90;;;23.00;65.00;;;;;;5035241;28;20116;-80
2023/06/11 19:30:32;;;;;;;1999.90;999.90;;;22.90;65.70;;;;;;5037749;28;20435;-80
2023/06/11 19:32:59;;;;;;;1999.90;999.90;;;22.80;65.60;;;;;;5034536;28;20029;-79
2023/06/11 19:35:26;;;;;;;1999.90;999.90;;;22.70;66.60;;;;;;5036999;28;20038;-79
2023/06/11 19:37:51;;;;;;;1999.90;999.90;;;22.50;67.30;;;;;;5035516;28;20040;-80
2023/06/11 19:40:17;;;;;;;1999.90;999.90;;;22.30;67.50;;;;;;5035757;28;20145;-82
2023/06/11 19:42:43;;;;;;;1999.90;999.90;;;22.20;68.50;;;;;;5035445;28;20116;-81
2023/06/11 19:45:09;;;;;;;1999.90;999.90;;;22.10;68.90;;;;;;5036014;28;20044;-82
2023/06/11 19:47:35;;;;;;;1999.90;999.90;;;22.00;69.60;;;;;;5038128;28;20034;-82
2023/06/11 19:50:02;;;;;;;1999.90;999.90;;;21.70;70.00;;;;;;5037857;28;20527;-82
2023/06/11 19:52:28;;;;;;;1999.90;999.90;;;21.70;70.80;;;;;;5035864;28;20478;-82
2023/06/11 19:54:53;;;;;;;1999.90;999.90;;;21.60;71.40;;;;;;5035441;28;20041;-83
2023/06/11 19:57:20;;;;;;;1999.90;999.90;;;21.40;72.10;;;;;;5036750;28;20030;-81
2023/06/11 19:59:46;;;;;;;1999.90;999.90;;;21.30;72.50;;;;;;5036839;28;20407;-80
2023/06/11 20:02:12;;;;;;;1999.90;999.90;;;21.30;74.40;;;;;;5034106;28;20038;-78
2023/06/11 20:04:37;;;;;;;1999.90;999.90;;;21.00;75.30;;;;;;5035141;28;20034;-78
2023/06/11 20:07:03;;;;;;;1999.90;999.90;;;21.00;75.50;;;;;;5033116;28;20499;-78
2023/06/11 20:09:30;;;;;;;1999.90;999.90;;;20.90;75.70;;;;;;5041421;28;20029;-79
2023/06/11 20:12:02;;;;;;;1999.90;999.90;;;20.70;76.60;;;;;;5034388;28;20056;-79
2023/06/11 20:14:28;;;;;;;1999.90;999.90;;;20.60;76.60;;;;;;5033100;28;20025;-79
2023/06/11 20:16:54;;;;;;;1999.90;999.90;;;20.50;77.30;;;;;;5035395;28;20034;-80
2023/06/11 20:19:19;;;;;;;1999.90;999.90;;;20.40;77.80;;;;;;5035556;28;20034;-79
2023/06/11 20:21:47;;;;;;;1999.90;999.90;;;20.20;79.30;;;;;;5049685;28;20124;-79
2023/06/11 20:24:12;;;;;;;1999.90;999.90;;;20.10;80.30;;;;;;5034901;28;20140;-79
2023/06/11 20:26:38;;;;;;;1999.90;999.90;;;20.10;80.00;;;;;;5035754;28;20069;-79
2023/06/11 20:29:04;;;;;;;1999.90;999.90;;;20.00;80.40;;;;;;5034990;28;20038;-78
2023/06/11 20:31:30;;;;;;;1999.90;999.90;;;20.00;82.20;;;;;;5032125;28;20034;-79
2023/06/11 20:33:56;;;;;;;1999.90;999.90;;;19.80;81.40;;;;;;5030911;28;20038;-75
2023/06/11 20:36:21;;;;;;;1999.90;999.90;;;19.70;82.40;;;;;;5031444;28;20377;-78
2023/06/11 20:38:47;;;;;;;1999.90;999.90;;;19.60;82.60;;;;;;5033123;28;20036;-77
2023/06/11 20:41:12;;;;;;;1999.90;999.90;;;19.60;83.80;;;;;;5033511;28;20038;-78
2023/06/11 20:43:38;;;;;;;1999.90;999.90;;;19.60;84.40;;;;;;5044343;28;20520;-77
2023/06/11 20:46:04;;;;;;;1999.90;999.90;;;19.50;84.50;;;;;;5053166;28;20371;-76
2023/06/11 20:48:29;;;;;;;1999.90;999.90;;;19.40;85.30;;;;;;5044873;28;20038;-77
2023/06/11 20:50:55;;;;;;;1999.90;999.90;;;19.40;85.20;;;;;;5034060;28;20057;-77
2023/06/11 20:53:21;;;;;;;1999.90;999.90;;;19.30;86.00;;;;;;5034312;28;20476;-76
2023/06/11 20:55:46;;;;;;;1999.90;999.90;;;19.20;86.80;;;;;;5034035;28;20054;-79
2023/06/11 20:58:12;;;;;;;1999.90;999.90;;;19.10;86.90;;;;;;5034426;28;20096;-77
2023/06/11 21:00:37;;;;;;;1999.90;999.90;;;19.00;89.90;;;;;;5034365;28;20042;-76
2023/06/11 21:03:03;;;;;;;1999.90;999.90;;;18.90;88.60;;;;;;5033951;28;20093;-78
2023/06/11 21:05:29;;;;;;;1999.90;999.90;;;18.80;88.70;;;;;;5032491;28;20034;-76
2023/06/11 21:07:55;;;;;;;1999.90;999.90;;;18.70;89.80;;;;;;5049335;28;20069;-77
2023/06/11 21:10:21;;;;;;;1999.90;999.90;;;18.70;90.00;;;;;;5033913;28;20066;-76
2023/06/11 21:12:48;;;;;;;1999.90;999.90;;;18.70;89.70;;;;;;5033746;28;20038;-76
2023/06/11 21:15:14;;;;;;;1999.90;999.90;;;18.60;90.10;;;;;;5033359;28;20038;-78
2023/06/11 21:17:41;;;;;;;1999.90;999.90;;;18.50;90.40;;;;;;5033861;28;20030;-77
2023/06/11 21:20:08;;;;;;;1999.90;999.90;;;18.40;90.80;;;;;;5034216;28;20132;-76
2023/06/11 21:22:33;;;;;;;1999.90;999.90;;;18.30;90.50;;;;;;5033077;28;20522;-76
2023/06/11 21:24:59;;;;;;;1999.90;999.90;;;18.20;91.20;;;;;;5033732;28;20077;-77
2023/06/11 21:27:24;;;;;;;1999.90;999.90;;;18.20;91.50;;;;;;5033177;28;20061;-76
2023/06/11 21:29:50;;;;;;;1999.90;999.90;;;18.10;91.10;;;;;;5037350;28;20040;-75
2023/06/11 21:32:16;;;;;;;1999.90;999.90;;;18.10;91.40;;;;;;5037002;28;20060;-76
2023/06/11 21:34:41;;;;;;;1999.90;999.90;;;17.90;91.50;;;;;;5037007;28;20057;-77
2023/06/11 21:37:07;;;;;;;1999.90;999.90;;;18.00;91.80;;;;;;5036882;28;20026;-76
2023/06/11 21:39:32;;;;;;;1999.90;999.90;;;17.90;91.90;;;;;;5037222;28;20034;-76
2023/06/11 21:41:58;;;;;;;1999.90;999.90;;;17.80;91.80;;;;;;5037011;28;20065;-77
2023/06/11 21:44:23;;;;;;;1999.90;999.90;;;17.80;92.00;;;;;;5036715;28;20041;-77
2023/06/11 21:46:49;;;;;;;1999.90;999.90;;;17.60;92.40;;;;;;5035541;28;20049;-77
2023/06/11 21:49:14;;;;;;;1999.90;999.90;;;17.60;92.60;;;;;;5035514;28;20030;-78
2023/06/11 21:51:40;;;;;;;1999.90;999.90;;;17.60;92.70;;;;;;5036671;28;20481;-77
2023/06/11 21:54:05;;;;;;;1999.90;999.90;;;17.50;92.90;;;;;;5036509;28;20038;-77
2023/06/11 21:56:31;;;;;;;1999.90;999.90;;;17.50;93.10;;;;;;5037095;28;20041;-77
2023/06/11 21:58:57;;;;;;;1999.90;999.90;;;17.40;93.30;;;;;;5037053;28;20033;-77
2023/06/11 22:01:23;;;;;;;1999.90;999.90;;;17.40;93.70;;;;;;5036498;28;20375;-77
2023/06/11 22:03:49;;;;;;;1999.90;999.90;;;17.30;93.50;;;;;;5036199;28;20515;-78
2023/06/11 22:06:14;;;;;;;1999.90;999.90;;;17.30;93.90;;;;;;5036622;28;20038;-78
2023/06/11 22:08:40;;;;;;;1999.90;999.90;;;17.20;94.00;;;;;;5036674;28;20030;-78
2023/06/11 22:11:06;;;;;;;1999.90;999.90;;;17.20;94.30;;;;;;5036298;28;20041;-78
2023/06/11 22:13:32;;;;;;;1999.90;999.90;;;17.20;94.70;;;;;;5034901;28;20026;-78
2023/06/11 22:15:58;;;;;;;1999.90;999.90;;;17.20;94.60;;;;;;5036413;28;20040;-78
2023/06/11 22:18:27;;;;;;;1999.90;999.90;;;17.10;94.50;;;;;;5036561;28;20037;-77
2023/06/11 22:20:57;;;;;;;1999.90;999.90;;;17.10;94.70;;;;;;5034901;28;20494;-78
2023/06/11 22:23:23;;;;;;;1999.90;999.90;;;17.10;94.90;;;;;;5036293;28;20500;-78
2023/06/11 22:25:48;;;;;;;1999.90;999.90;;;17.10;94.90;;;;;;5036369;28;20041;-78
2023/06/11 22:28:14;;;;;;;1999.90;999.90;;;17.00;95.00;;;;;;5037113;28;20034;-78
2023/06/11 22:30:40;;;;;;;1999.90;999.90;;;16.90;95.10;;;;;;5036218;28;20045;-78
2023/06/11 22:33:05;;;;;;;1999.90;999.90;;;16.90;95.00;;;;;;5034375;28;20124;-78
2023/06/11 22:35:31;;;;;;;1999.90;999.90;;;16.80;95.40;;;;;;5036087;28;20041;-78
2023/06/11 22:37:56;;;;;;;1999.90;999.90;;;16.80;95.20;;;;;;5036274;28;20030;-78
2023/06/11 22:40:22;;;;;;;1999.90;999.90;;;16.70;95.10;;;;;;5035878;28;20488;-79
2023/06/11 22:42:47;;;;;;;1999.90;999.90;;;16.70;95.10;;;;;;5035836;28;20100;-78
2023/06/11 22:45:13;;;;;;;1999.90;999.90;;;16.60;95.50;;;;;;5035959;28;20030;-78
2023/06/11 22:47:38;;;;;;;1999.90;999.90;;;16.60;95.10;;;;;;5035666;28;20037;-78
2023/06/11 22:50:04;;;;;;;1999.90;999.90;;;16.60;95.40;;;;;;5034212;28;20511;-78
2023/06/11 22:52:38;;;;;;;1999.90;999.90;;;16.60;95.50;;;;;;5035475;28;20061;-78
2023/06/11 22:55:06;;;;;;;1999.90;999.90;;;16.60;95.60;;;;;;5074857;22;20514;-79
2023/06/11 22:57:32;;;;;;;1999.90;999.90;;;16.50;95.50;;;;;;5074168;28;20033;-79
2023/06/11 22:59:57;;;;;;;1999.90;999.90;;;16.50;95.70;;;;;;5055779;28;20038;-80
2023/06/11 23:02:23;;;;;;;1999.90;999.90;;;16.50;95.70;;;;;;5055190;28;20049;-77
2023/06/11 23:04:50;;;;;;;1999.90;999.90;;;16.40;95.70;;;;;;5047736;28;20037;-77
2023/06/11 23:07:17;;;;;;;1999.90;999.90;;;16.40;96.00;;;;;;5034155;28;20033;-77
2023/06/11 23:09:43;;;;;;;1999.90;999.90;;;16.40;96.10;;;;;;5035625;28;20412;-77
2023/06/11 23:12:11;;;;;;;1999.90;999.90;;;16.30;96.20;;;;;;5035246;28;20857;-77
2023/06/11 23:14:37;;;;;;;1999.90;999.90;;;16.30;96.40;;;;;;5034212;28;20494;-77
2023/06/11 23:17:03;;;;;;;1999.90;999.90;;;16.30;96.70;;;;;;5035442;28;20053;-77
2023/06/11 23:19:29;;;;;;;1999.90;999.90;;;16.20;96.60;;;;;;5035315;28;20065;-77
2023/06/11 23:21:58;;;;;;;1999.90;999.90;;;16.20;97.00;;;;;;5035353;28;20530;-77
2023/06/11 23:24:27;;;;;;;1999.90;999.90;;;16.10;97.60;;;;;;5035361;28;20030;-77
2023/06/11 23:27:01;;;;;;;1999.90;999.90;;;16.10;97.10;;;;;;5048239;28;20181;-77
2023/06/11 23:29:28;;;;;;;1999.90;999.90;;;16.10;97.60;;;;;;5055130;28;20112;-77
2023/06/11 23:31:54;;;;;;;1999.90;999.90;;;16.00;97.60;;;;;;5045790;28;20127;-77
2023/06/11 23:34:20;;;;;;;1999.90;999.90;;;16.00;98.20;;;;;;5035236;28;20518;-77
2023/06/11 23:36:46;;;;;;;1999.90;999.90;;;15.90;97.70;;;;;;5035491;28;20088;-77
2023/06/11 23:39:13;;;;;;;1999.90;999.90;;;15.90;98.10;;;;;;5033815;28;20046;-77
2023/06/11 23:41:39;;;;;;;1999.90;999.90;;;15.80;98.40;;;;;;5034790;28;20050;-77
2023/06/11 23:44:04;;;;;;;1999.90;999.90;;;15.80;98.70;;;;;;5034622;28;20451;-77
2023/06/11 23:46:32;;;;;;;1999.90;999.90;;;15.70;98.30;;;;;;5033745;28;20034;-77
2023/06/11 23:48:57;;;;;;;1999.90;999.90;;;15.70;98.60;;;;;;5034951;28;20042;-77
2023/06/11 23:51:24;;;;;;;1999.90;999.90;;;15.70;98.60;;;;;;5034099;28;20042;-77
2023/06/11 23:53:51;;;;;;;1999.90;999.90;;;15.60;98.60;;;;;;5035005;28;20060;-77
2023/06/11 23:56:16;;;;;;;1999.90;999.90;;;15.70;98.80;;;;;;5035058;28;20117;-76
2023/06/11 23:58:42;;;;;;;1999.90;999.90;;;15.60;98.80;;;;;;5034975;28;20025;-77
